International Virtual Aviation Organisation

Russian Federation and Kazakhstan MCD

 

Карточка аэропорта UWKD

Внимание!
Информация на этой странице в стадии наполнения.
Если вы не увидели какой-то информации, или заметили неточность - пожалуйста сообщите нам!
Спасибо!
Команда RU-STAFF
Название аэропортаКазань
Название аэропорта (англ.)Kazan
Превышение413 ft. (125.9 m.)
Координаты55°36.498', 49°16.668'
Высота перехода900m
Эшелон переходаQFE>=749mm:FL050; QFE<749=>722:FL060; QFE<722:FL070
Коды ответчика6732-6737
Зона ОрВДСамара РПИ (UWWW)
Данные METARUWKD 281000Z 12007MPS 9000 -SN DRSN BKN048 M05/M07 Q1031 R11/450540 NOSIG RMK QFE763/1018
Проноз погоды (TAF)UWKD 280800Z 2809/2909 12006G12MPS 3100 -SN BLSN OVC011 TXM02/2818Z TNM05/2809Z TEMPO 2809/2821 1000 SN BLSN OVC003
NOTAMshow/hide NOTAM
AWOS   TABLE

Информация о ВПП

ВПП Длина ВПП (м.) Покрытие Курс ВПП Частота ILS
113750Цементобетон112110.5
293750Цементобетон292111.7

Диспетчерские позиции

Позывной Наименование органа УВД Частота
UWKD_APPКазань - Подход128.625
UWKD_GNDКазань-Руление121.7
UWKD_R_APPКазань-Круг119.400
UWKD_TWRКазань-Старт120.300



Спутниковое изображение